^^

..:: Storico WU ::..




Lo storico viene creato da WUnderground con i dati che la stazione Meteomincio invia al loro server. L' aggiornamento viene fatto ogni 5 minuti circa, tuttavia possono esserci intervalli pi¨ ampi a causa di errori, interruzioni di servizio o problemi nell' invio tramite FTP.


Storico stazione MeteoMincio
Giorno Sommario per Gennaio 12, 2022 Unità:  Inglese    Metrico   Entrambi
Giorno Settimana Mese Anno
  Max: Min: Media:
Temperatura: 45.9 °F 25.3 °F 33.4 °F
Dew Point: 36.1 °F 23.7 °F 29.7 °F
Umidità: 95% 64.8% 86%
Velocità vento: 6.8mph 0mph 2.3mph
Raffica: 10.4mph - -
Direzione- - West
Pressione: 30.6 in 30.4 in -
Precipitazioni: 0.01 in    
 
 
Tabulato Dati per Gennaio 12, 2022
Ora Temperatura Dew Point Pressione Direzione Velocità vento Raffica Umidità Intensità pioggia (oraria) Info solare Situazione
00:04 30.7 °F 29.3 °F 30.4 in ENE 2.1 mph 5 mph 94.4% 0 in 0 W/m2
00:09 30.6 °F 29.3 °F 30.4 in NE 2.2 mph 3.5 mph 94.7% 0 in 0 W/m2
00:14 31.1 °F 29.7 °F 30.4 in NE 2.1 mph 3.5 mph 94.6% 0 in 0 W/m2
00:19 30.9 °F 29.5 °F 30.4 in NE 2.1 mph 3.5 mph 94.3% 0 in 0 W/m2
00:24 30.6 °F 28.9 °F 30.4 in East 2.3 mph 4 mph 93.7% 0 in 0 W/m2
00:29 30.4 °F 28.9 °F 30.4 in ESE 2.7 mph 4 mph 94.2% 0 in 0 W/m2
00:34 30.2 °F 28.8 °F 30.4 in ESE 2 mph 4 mph 94.2% 0 in 0 W/m2
00:39 29.7 °F 28.2 °F 30.4 in ESE 1.7 mph 4 mph 94.1% 0 in 0 W/m2
00:44 29.5 °F 28.2 °F 30.4 in ESE 1.1 mph 3.5 mph 95% 0 in 0 W/m2
00:49 29.7 °F 28.2 °F 30.4 in ESE 2.1 mph 3.5 mph 95% 0 in 0 W/m2
00:54 29.5 °F 28.2 °F 30.4 in East 2.4 mph 5 mph 95% 0 in 0 W/m2
00:59 29.7 °F 28.4 °F 30.4 in East 2.3 mph 5 mph 95% 0 in 0 W/m2
01:04 30 °F 28.8 °F 30.4 in East 1.2 mph 5 mph 95% 0 in 0 W/m2
01:09 30 °F 28.6 °F 30.4 in East 1.4 mph 3 mph 94.2% 0 in 0 W/m2
01:14 29.8 °F 28.2 °F 30.4 in ESE 2.3 mph 4 mph 94% 0 in 0 W/m2
01:19 30 °F 28.6 °F 30.4 in East 1 mph 4 mph 94.3% 0 in 0 W/m2
01:24 30.2 °F 28.6 °F 30.4 in ENE 1.4 mph 3 mph 93.7% 0 in 0 W/m2
01:29 30.4 °F 28.8 °F 30.4 in NW 1.2 mph 3.5 mph 93.5% 0 in 0 W/m2
01:34 30 °F 28.2 °F 30.4 in NW 0.2 mph 3 mph 93.1% 0 in 0 W/m2
01:39 30 °F 28.2 °F 30.4 in NW 1.5 mph 3.5 mph 93.4% 0 in 0 W/m2
01:44 29.7 °F 27.9 °F 30.4 in North 0.6 mph 3 mph 93% 0 in 0 W/m2
01:49 29.5 °F 27.7 °F 30.4 in North 0.9 mph 2.3 mph 93% 0 in 0 W/m2
01:54 29.1 °F 27.3 °F 30.4 in NNE 1.7 mph 2.3 mph 93% 0 in 0 W/m2
01:59 29.1 °F 27.5 °F 30.4 in NNE 1.2 mph 3.5 mph 93.9% 0 in 0 W/m2
02:04 28.9 °F 27.5 °F 30.4 in North 1.3 mph 3 mph 94% 0 in 0 W/m2
02:09 28.9 °F 27.3 °F 30.4 in North 1.2 mph 2.3 mph 93.5% 0 in 0 W/m2
02:14 28.4 °F 26.8 °F 30.4 in North 1 mph 2.3 mph 93.2% 0 in 0 W/m2
02:19 28.6 °F 27 °F 30.4 in NNE 1.1 mph 2.3 mph 94% 0 in 0 W/m2
02:24 28.4 °F 26.6 °F 30.4 in NNE 0.5 mph 2.3 mph 93.2% 0 in 0 W/m2
02:29 28 °F 26.4 °F 30.4 in Calm   1.2 mph 93.4% 0 in 0 W/m2
02:34 27.5 °F 25.7 °F 30.4 in WNW 0.2 mph 3.5 mph 93% 0 in 0 W/m2
02:39 26.6 °F 25 °F 30.4 in WNW 2.4 mph 4 mph 93.4% 0 in 0 W/m2
02:44 27 °F 25.5 °F 30.4 in NW 1.9 mph 4 mph 94% 0 in 0 W/m2
02:49 27.3 °F 25.9 °F 30.4 in NW 1.9 mph 3.5 mph 94% 0 in 0 W/m2
02:54 27.5 °F 26.1 °F 30.4 in NW 2.2 mph 3.5 mph 93.8% 0 in 0 W/m2
02:59 27.3 °F 25.5 °F 30.4 in NW 2.2 mph 3.5 mph 93% 0 in 0 W/m2
03:04 26.4 °F 24.4 °F 30.4 in WNW 2.5 mph 4 mph 92.2% 0 in 0 W/m2
03:09 26.1 °F 24.3 °F 30.4 in WNW 2.9 mph 5 mph 93% 0 in 0 W/m2
03:14 25.5 °F 23.7 °F 30.4 in WNW 3.1 mph 5 mph 93% 0 in 0 W/m2
03:19 25.3 °F 23.9 °F 30.4 in WNW 2.4 mph 5 mph 93.7% 0 in 0 W/m2
03:24 25.9 °F 24.3 °F 30.4 in WNW 0.6 mph 4 mph 94% 0 in 0 W/m2
03:29 26.1 °F 24.6 °F 30.4 in WNW 1 mph 2.3 mph 94% 0 in 0 W/m2
03:34 26.2 °F 24.6 °F 30.4 in WNW 0.1 mph 2 mph 94% 0 in 0 W/m2
03:39 26.6 °F 25.2 °F 30.4 in Calm   1 mph 94.2% 0 in 0 W/m2
03:44 26.8 °F 25.2 °F 30.4 in Calm     94% 0 in 0 W/m2
03:49 26.8 °F 25.2 °F 30.4 in WNW 1.6 mph 3.5 mph 93.8% 0 in 0 W/m2
03:54 26.6 °F 25 °F 30.4 in WNW 2.1 mph 4 mph 94% 0 in 0 W/m2
03:59 26.8 °F 25.2 °F 30.4 in NW 2.7 mph 4 mph 94% 0 in 0 W/m2
04:04 26.8 °F 25.2 °F 30.4 in WNW 2.2 mph 3.5 mph 94% 0 in 0 W/m2
04:09 26.2 °F 24.6 °F 30.4 in West 2.4 mph 3.5 mph 93.3% 0 in 0 W/m2
04:14 25.5 °F 23.9 °F 30.4 in West 1.9 mph 3.5 mph 93.2% 0 in 0 W/m2
04:19 25.9 °F 24.4 °F 30.4 in West 1.4 mph 2.3 mph 94% 0 in 0 W/m2
04:24 25.9 °F 24.4 °F 30.4 in West 1.3 mph 3.5 mph 94% 0 in 0 W/m2
04:29 25.9 °F 24.4 °F 30.4 in West 2.4 mph 4 mph 94% 0 in 0 W/m2
04:34 25.9 °F 24.4 °F 30.4 in West 2.2 mph 4 mph 94% 0 in 0 W/m2
04:39 25.9 °F 24.4 °F 30.4 in West 2.7 mph 4 mph 94% 0 in 0 W/m2
04:44 25.9 °F 24.4 °F 30.4 in WNW 2.2 mph 4 mph 94.1% 0 in 0 W/m2
04:49 26.2 °F 25.2 °F 30.4 in NW 2.9 mph 4 mph 95% 0 in 0 W/m2
04:54 26.6 °F 25.3 °F 30.4 in WNW 1.7 mph 4 mph 95% 0 in 0 W/m2
04:59 26.6 °F 25.2 °F 30.4 in West 1 mph 3 mph 94.1% 0 in 0 W/m2
05:04 26.4 °F 25 °F 30.4 in West 1.2 mph 3.5 mph 94% 0 in 0 W/m2
05:09 26.4 °F 25 °F 30.4 in West 0.4 mph 3 mph 94% 0 in 0 W/m2
05:14 26.2 °F 24.8 °F 30.4 in West 0.3 mph 2.3 mph 94% 0 in 0 W/m2
05:19 26.2 °F 24.6 °F 30.4 in Calm   1 mph 94% 0 in 0 W/m2
05:24 26.2 °F 24.8 °F 30.4 in Calm     94% 0 in 0 W/m2
05:29 26.4 °F 25 °F 30.4 in Calm     94% 0 in 0 W/m2
05:34 26.4 °F 25 °F 30.4 in Calm     93.9% 0 in 0 W/m2
05:39 26.2 °F 24.8 °F 30.4 in Calm     93.8% 0 in 0 W/m2
05:44 25.9 °F 24.1 °F 30.4 in WSW 1.6 mph 3.5 mph 93% 0 in 0 W/m2
05:49 25.5 °F 23.9 °F 30.4 in West 2.3 mph 3.5 mph 93.5% 0 in 0 W/m2
05:54 25.7 °F 24.3 °F 30.4 in West 2.2 mph 3.5 mph 94.1% 0 in 0 W/m2
05:59 26.1 °F 24.6 °F 30.4 in West 2.5 mph 4 mph 94.3% 0 in 0 W/m2
06:04 25.9 °F 24.4 °F 30.4 in WSW 3.4 mph 4 mph 93.8% 0 in 0 W/m2
06:09 25.5 °F 23.7 °F 30.4 in West 3.5 mph 5 mph 93.2% 0 in 0 W/m2
06:14 26.1 °F 24.8 °F 30.4 in West 2.4 mph 5 mph 94.7% 0 in 0 W/m2
06:19 26.4 °F 25.2 °F 30.4 in WSW 2.1 mph 3.5 mph 94.5% 0 in 0 W/m2
06:24 26.1 °F 24.6 °F 30.4 in SW 1.2 mph 3.5 mph 94% 0 in 0 W/m2
06:29 25.9 °F 24.4 °F 30.4 in NW 1.6 mph 3.5 mph 94% 0 in 0 W/m2
06:34 25.9 °F 24.6 °F 30.4 in NW 0.6 mph 3 mph 94.8% 0 in 0 W/m2
06:39 25.9 °F 24.4 °F 30.4 in NW 0.7 mph 2.3 mph 94.1% 0 in 0 W/m2
06:44 25.5 °F 24.1 °F 30.4 in WNW 1.3 mph 2.3 mph 94% 0 in 0 W/m2
06:49 25.5 °F 23.9 °F 30.4 in WNW 2.1 mph 3.5 mph 94% 0 in 0 W/m2
06:54 25.5 °F 24.1 °F 30.4 in WNW 1.1 mph 3 mph 94% 0 in 0 W/m2
06:59 25.5 °F 23.9 °F 30.4 in WNW 1.6 mph 3.5 mph 94% 0 in 0 W/m2
07:04 25.5 °F 24.1 °F 30.4 in NW 2.4 mph 4 mph 94.3% 0 in 0 W/m2
07:09 25.9 °F 24.6 °F 30.4 in WNW 2.8 mph 4 mph 94.8% 0 in 0 W/m2
07:14 26.1 °F 24.6 °F 30.4 in West 1.8 mph 4 mph 94.6% 0 in 0 W/m2
07:19 25.3 °F 23.9 °F 30.4 in WNW 2.9 mph 5 mph 93.6% 0 in 0 W/m2
07:24 25.7 °F 24.6 °F 30.4 in NW 2.2 mph 5 mph 95% 0 in 0 W/m2
07:29 26.1 °F 24.8 °F 30.4 in NW 1.5 mph 5 mph 95% 0 in 0 W/m2
07:34 26.2 °F 25 °F 30.4 in NW 2.4 mph 4 mph 94.9% 0 in 0 W/m2
07:39 26.2 °F 24.6 °F 30.4 in NW 2.1 mph 4 mph 94% 0 in 0 W/m2
07:44 26.4 °F 24.8 °F 30.5 in NW 1.5 mph 3 mph 94% 0 in 0 W/m2
07:49 26.4 °F 24.8 °F 30.5 in NW 0.9 mph 2.3 mph 94% 0 in 0 W/m2
07:54 26.1 °F 24.4 °F 30.5 in NW 1.1 mph 2.3 mph 93.8% 0 in 0 W/m2
07:59 25.7 °F 24.1 °F 30.5 in NW 1.7 mph 2.3 mph 93.9% 0 in 5 W/m2
08:04 25.7 °F 24.3 °F 30.5 in NW 1.4 mph 2.3 mph 94% 0 in 7 W/m2
08:09 26.1 °F 24.6 °F 30.5 in NNW 1.8 mph 3.5 mph 94.4% 0 in 9 W/m2
08:14 26.4 °F 24.8 °F 30.5 in NNW 1.5 mph 3.5 mph 94% 0 in 11 W/m2
08:19 26.6 °F 25.2 °F 30.5 in NNW 1.5 mph 3.5 mph 94% 0 in 12 W/m2
08:24 26.8 °F 25.2 °F 30.5 in NNW 1.8 mph 3.5 mph 93.6% 0 in 14 W/m2
08:29 27.1 °F 25.5 °F 30.5 in NNW 1.6 mph 3.5 mph 93.7% 0 in 18 W/m2
08:34 27.1 °F 25.3 °F 30.5 in NNW 1.3 mph 3 mph 93% 0 in 19 W/m2
08:39 27.3 °F 25.5 °F 30.5 in NW 1.9 mph 3.5 mph 93% 0 in 21 W/m2
08:44 27 °F 25.2 °F 30.5 in NW 2.7 mph 4 mph 93.1% 0 in 23 W/m2
08:49 27.3 °F 25.9 °F 30.5 in NW 1.4 mph 4 mph 93.9% 0 in 25 W/m2
08:54 27.5 °F 25.9 °F 30.5 in NW 1 mph 3 mph 93.5% 0 in 26 W/m2
08:59 27.7 °F 25.9 °F 30.5 in NW 1 mph 2.3 mph 93% 0 in 28 W/m2
09:04 28.2 °F 26.4 °F 30.5 in NW 0.1 mph 2.3 mph 93.2% 0 in 30 W/m2
09:09 28.4 °F 26.6 °F 30.5 in Calm   2 mph 93% 0 in 32 W/m2
09:14 28.8 °F 27.1 °F 30.5 in Calm     93.2% 0 in 84 W/m2
09:19 29.1 °F 27.3 °F 30.5 in NW 0.2 mph 2.3 mph 93% 0 in 113 W/m2
09:24 29.8 °F 28 °F 30.5 in NW 1.4 mph 2.3 mph 93% 0 in 132 W/m2
09:29 31.1 °F 28.9 °F 30.5 in NW 2.2 mph 3.5 mph 91.3% 0 in 132 W/m2
09:34 31.8 °F 29.3 °F 30.5 in WNW 1.7 mph 3.5 mph 90% 0 in 109 W/m2
09:39 32.2 °F 29.3 °F 30.5 in WNW 2.1 mph 4 mph 89.6% 0 in 163 W/m2
09:44 32.5 °F 29.5 °F 30.5 in WNW 3 mph 4 mph 88.8% 0 in 179 W/m2
09:49 32.9 °F 29.8 °F 30.5 in WNW 2.3 mph 4 mph 88.6% 0 in 207 W/m2
09:54 33.4 °F 30.2 °F 30.5 in WNW 2.1 mph 4 mph 88.1% 0.01 in 234 W/m2
09:59 34 °F 30.7 °F 30.5 in WNW 2.4 mph 4 mph 88% 0.01 in 248 W/m2
10:04 34.3 °F 31.1 °F 30.5 in WNW 3.5 mph 5 mph 87.6% 0.01 in 251 W/m2
10:09 34.7 °F 31.5 °F 30.5 in WNW 2.3 mph 4 mph 87.5% 0.01 in 260 W/m2
10:14 35.4 °F 32.2 °F 30.5 in NW 2.7 mph 4 mph 87.9% 0.01 in 264 W/m2
10:19 36.1 °F 32.7 °F 30.5 in WNW 3.4 mph 6 mph 87.1% 0.01 in 264 W/m2
10:24 36.9 °F 32.7 °F 30.5 in WNW 4.6 mph 8 mph 84.9% 0.01 in 279 W/m2
10:29 37.6 °F 32.5 °F 30.5 in WNW 4.3 mph 8.1 mph 82.1% 0.01 in 287 W/m2
10:34 38.3 °F 33.1 °F 30.5 in WNW 4.3 mph 8 mph 81.2% 0.01 in 295 W/m2
10:39 38.8 °F 33.4 °F 30.5 in WNW 3.8 mph 6.9 mph 80.8% 0.01 in 302 W/m2
10:44 39.2 °F 33.6 °F 30.5 in WNW 3.6 mph 7 mph 80.5% 0.01 in 313 W/m2
10:49 39.6 °F 34 °F 30.5 in West 3.3 mph 7 mph 80.7% 0.01 in 318 W/m2
10:54 39.6 °F 34.5 °F 30.5 in West 3.1 mph 6 mph 81.7% 0.01 in 325 W/m2
10:59 39.9 °F 34.9 °F 30.5 in West 3.6 mph 6 mph 81.9% 0 in 334 W/m2
11:04 40.3 °F 34.5 °F 30.5 in West 4.8 mph 7 mph 79.7% 0 in 341 W/m2
11:09 40.6 °F 34.3 °F 30.5 in WNW 4.4 mph 7 mph 78.3% 0 in 348 W/m2
11:14 41 °F 34.9 °F 30.5 in West 3.9 mph 8 mph 78.4% 0 in 350 W/m2
11:19 41.2 °F 34.7 °F 30.5 in West 5.1 mph 8.1 mph 77.6% 0 in 357 W/m2
11:24 41.2 °F 35.4 °F 30.5 in West 4.9 mph 8.1 mph 79.4% 0 in 360 W/m2
11:29 41.2 °F 35.2 °F 30.5 in West 5.7 mph 8.1 mph 79.2% 0 in 364 W/m2
11:34 41.2 °F 35.1 °F 30.5 in West 5.3 mph 8.1 mph 78.3% 0 in 369 W/m2
11:39 41.5 °F 35.2 °F 30.5 in West 5.5 mph 9 mph 78.4% 0 in 371 W/m2
11:44 41.4 °F 36 °F 30.5 in WSW 5.1 mph 9 mph 81.2% 0 in 376 W/m2
11:49 41.2 °F 36 °F 30.5 in West 4.8 mph 8 mph 81.5% 0 in 380 W/m2
11:54 41.7 °F 36.1 °F 30.5 in West 4.4 mph 7 mph 80.5% 0 in 381 W/m2
11:59 41.9 °F 35.6 °F 30.5 in West 5.7 mph 9.2 mph 78.4% 0 in 385 W/m2
12:04 41.9 °F 35.6 °F 30.5 in WNW 6.8 mph 10.4 mph 78.1% 0 in 385 W/m2
12:09 41.9 °F 35.2 °F 30.5 in WNW 5.6 mph 10.4 mph 77.2% 0 in 387 W/m2
12:14 42.1 °F 35.8 °F 30.5 in West 5.1 mph 10 mph 77.8% 0 in 388 W/m2
12:19 42.4 °F 36 °F 30.5 in West 4.3 mph 8.1 mph 77.7% 0 in 390 W/m2
12:24 42.8 °F 36 °F 30.5 in WNW 4.5 mph 8.1 mph 76.9% 0 in 396 W/m2
12:29 43 °F 36.1 °F 30.5 in WNW 3.6 mph 10 mph 76.8% 0 in 394 W/m2
12:34 43.2 °F 35.8 °F 30.5 in WNW 5.7 mph 10.4 mph 75.4% 0 in 394 W/m2
12:39 43.2 °F 35.8 °F 30.5 in WNW 6.3 mph 10.4 mph 74.9% 0 in 394 W/m2
12:44 43.5 °F 36 °F 30.5 in WNW 5.6 mph 10 mph 74.1% 0 in 396 W/m2
12:49 43.9 °F 35.8 °F 30.5 in WNW 5.7 mph 8.1 mph 73% 0 in 394 W/m2
12:54 44.4 °F 36 °F 30.5 in WNW 6 mph 9.2 mph 72.3% 0 in 397 W/m2
12:59 44.4 °F 35.4 °F 30.5 in West 5.7 mph 10 mph 70.7% 0 in 396 W/m2
13:04 44.6 °F 35.6 °F 30.5 in WNW 6.2 mph 10.4 mph 70.8% 0 in 394 W/m2
13:09 44.6 °F 35.2 °F 30.5 in WNW 6.8 mph 10 mph 69.5% 0 in 392 W/m2
13:14 44.6 °F 35.2 °F 30.5 in WNW 5.3 mph 9.2 mph 69.2% 0 in 387 W/m2
13:19 44.8 °F 34.9 °F 30.5 in WNW 5.5 mph 9.2 mph 68.4% 0 in 383 W/m2
13:24 44.8 °F 35.2 °F 30.5 in West 4.5 mph 9 mph 69% 0 in 381 W/m2
13:29 44.8 °F 35.2 °F 30.5 in West 5.5 mph 9.2 mph 69% 0 in 380 W/m2
13:34 44.8 °F 35.4 °F 30.5 in West 4.7 mph 9 mph 69.5% 0 in 373 W/m2
13:39 45.1 °F 36 °F 30.5 in West 5.2 mph 7 mph 70% 0 in 369 W/m2
13:44 45 °F 36 °F 30.5 in West 5 mph 7 mph 70.3% 0 in 364 W/m2
13:49 45.1 °F 36.1 °F 30.5 in West 5.2 mph 8.1 mph 70.6% 0 in 359 W/m2
13:54 45.3 °F 35.8 °F 30.5 in West 4.2 mph 8.1 mph 69.5% 0 in 353 W/m2
13:59 45.3 °F 36.1 °F 30.5 in WSW 4.6 mph 8.1 mph 70.3% 0 in 348 W/m2
14:04 45.3 °F 35.6 °F 30.5 in West 5.5 mph 8.1 mph 68.6% 0 in 343 W/m2
14:09 45.1 °F 36 °F 30.5 in WSW 5.5 mph 7 mph 69.8% 0 in 338 W/m2
14:14 45.5 °F 36.1 °F 30.5 in WSW 4.2 mph 7 mph 69.8% 0 in 330 W/m2
14:19 45.5 °F 36 °F 30.5 in WSW 4.3 mph 8.1 mph 69.2% 0 in 323 W/m2
14:24 45.5 °F 36 °F 30.5 in WSW 4.9 mph 8.1 mph 69.3% 0 in 320 W/m2
14:29 45.5 °F 35.8 °F 30.5 in West 5.3 mph 8.1 mph 68.9% 0 in 309 W/m2
14:34 45.5 °F 35.2 °F 30.5 in WSW 5 mph 8.1 mph 67.3% 0 in 302 W/m2
14:39 45.5 °F 35.2 °F 30.5 in WSW 5.2 mph 8.1 mph 67% 0 in 295 W/m2
14:44 45.7 °F 35.4 °F 30.5 in West 5.3 mph 9.2 mph 67.1% 0 in 287 W/m2
14:49 45.7 °F 35.4 °F 30.5 in West 3.9 mph 9 mph 67.2% 0 in 276 W/m2
14:54 45.9 °F 35.4 °F 30.5 in West 4.1 mph 7 mph 66.8% 0 in 267 W/m2
14:59 45.9 °F 35.4 °F 30.5 in WNW 4.5 mph 7 mph 66.6% 0 in 257 W/m2
15:04 45.9 °F 34.9 °F 30.5 in West 5.8 mph 8.1 mph 64.9% 0 in 248 W/m2
15:09 45.7 °F 34.5 °F 30.5 in West 4.8 mph 8.1 mph 64.8% 0 in 239 W/m2
15:14 45.7 °F 34.5 °F 30.5 in West 4.2 mph 8 mph 64.9% 0 in 229 W/m2
15:19 45.5 °F 34.7 °F 30.5 in West 4.2 mph 7 mph 65.7% 0 in 216 W/m2
15:24 45.5 °F 34.9 °F 30.5 in West 3.3 mph 7 mph 66% 0 in 200 W/m2
15:29 45.3 °F 34.9 °F 30.5 in West 3.5 mph 6 mph 66.8% 0 in 183 W/m2
15:34 45.1 °F 35.1 °F 30.5 in West 2.8 mph 6 mph 67.4% 0 in 179 W/m2
15:39 45.1 °F 34.9 °F 30.5 in WSW 3 mph 5 mph 67.1% 0 in 165 W/m2
15:44 45 °F 35.2 °F 30.5 in WSW 3.5 mph 5 mph 68.4% 0 in 155 W/m2
15:49 44.8 °F 35.1 °F 30.5 in West 3.9 mph 6 mph 68.4% 0 in 141 W/m2
15:54 44.6 °F 35.1 °F 30.5 in West 2.9 mph 6 mph 68.8% 0 in 127 W/m2
15:59 44.4 °F 35.1 °F 30.5 in West 2.4 mph 5 mph 69.4% 0 in 113 W/m2
16:04 44.1 °F 34.9 °F 30.5 in West 1.8 mph 4 mph 70% 0 in 32 W/m2
16:09 44.1 °F 34.9 °F 30.5 in West 2.1 mph 3.5 mph 70% 0 in 30 W/m2
16:14 43.9 °F 34.7 °F 30.5 in West 1.7 mph 4 mph 70% 0 in 28 W/m2
16:19 43.7 °F 34.7 °F 30.5 in West 1.4 mph 4 mph 70.6% 0 in 25 W/m2
16:24 43.2 °F 34.7 °F 30.5 in West 1.1 mph 3.5 mph 71.8% 0 in 23 W/m2
16:29 42.8 °F 34.5 °F 30.5 in West 1.6 mph 3.5 mph 72.7% 0 in 21 W/m2
16:34 42.3 °F 34.9 °F 30.5 in WSW 1.3 mph 3 mph 74.7% 0 in 19 W/m2
16:39 42.1 °F 34.9 °F 30.5 in WSW 1.3 mph 3 mph 75.5% 0 in 16 W/m2
16:44 41.9 °F 34.7 °F 30.5 in West 1.4 mph 3 mph 75.9% 0 in 12 W/m2
16:49 41.2 °F 34.3 °F 30.5 in West 1.6 mph 3.5 mph 76.3% 0 in 11 W/m2
16:54 40.8 °F 34.2 °F 30.5 in West 1.5 mph 3 mph 77% 0 in 7 W/m2
16:59 40.3 °F 33.6 °F 30.5 in West 1.2 mph 2.3 mph 77% 0 in 5 W/m2
17:04 39.7 °F 33.4 °F 30.5 in West 1.7 mph 3.5 mph 78% 0 in 0 W/m2
17:09 39.4 °F 33.1 °F 30.5 in West 1.9 mph 3.5 mph 78% 0 in 0 W/m2
17:14 38.8 °F 32.7 °F 30.5 in West 1.9 mph 3.5 mph 78.5% 0 in 0 W/m2
17:19 38.3 °F 32.5 °F 30.5 in WNW 1.7 mph 3 mph 79.3% 0 in 0 W/m2
17:24 37.6 °F 32.4 °F 30.5 in WNW 1.8 mph 3.5 mph 81.2% 0 in 0 W/m2
17:29 37 °F 32 °F 30.5 in WNW 1.3 mph 3 mph 82% 0 in 0 W/m2
17:34 36.3 °F 31.6 °F 30.5 in West 1.9 mph 3.5 mph 82.7% 0 in 0 W/m2
17:39 36.3 °F 31.8 °F 30.5 in WSW 2.2 mph 3.5 mph 83.7% 0 in 0 W/m2
17:44 36.5 °F 31.6 °F 30.5 in WSW 2.2 mph 3.5 mph 83% 0 in 0 W/m2
17:49 36.5 °F 31.8 °F 30.5 in WSW 2.2 mph 3.5 mph 83% 0 in 0 W/m2
17:54 36.5 °F 31.8 °F 30.5 in WSW 1.6 mph 3.5 mph 82.8% 0 in 0 W/m2
17:59 36.1 °F 31.5 °F 30.5 in WSW 1.2 mph 3 mph 83% 0 in 0 W/m2
18:04 36 °F 31.5 °F 30.5 in WSW 1.1 mph 2.3 mph 83.5% 0 in 0 W/m2
18:09 35.4 °F 31.3 °F 30.5 in WSW 1.1 mph 2.3 mph 84.9% 0 in 0 W/m2
18:14 35.2 °F 31.3 °F 30.5 in WSW 1.5 mph 2.3 mph 85% 0 in 0 W/m2
18:19 35.4 °F 31.3 °F 30.5 in WSW 1.6 mph 2.3 mph 85% 0 in 0 W/m2
18:24 34.7 °F 30.9 °F 30.5 in WSW 1.6 mph 2.3 mph 85.6% 0 in 0 W/m2
18:29 34.7 °F 30.9 °F 30.5 in WSW 1.7 mph 2.3 mph 86% 0 in 0 W/m2
18:34 34.7 °F 30.9 °F 30.5 in WSW 1.7 mph 3.5 mph 85.6% 0 in 0 W/m2
18:39 34.7 °F 30.9 °F 30.5 in WSW 1.9 mph 3.5 mph 86% 0 in 0 W/m2
18:44 34.5 °F 30.7 °F 30.5 in WSW 1.2 mph 3 mph 86% 0 in 0 W/m2
18:49 34.2 °F 30.6 °F 30.5 in WSW 1.5 mph 2.3 mph 86.7% 0 in 0 W/m2
18:54 34 °F 30.6 °F 30.5 in WSW 1.8 mph 3.5 mph 87% 0 in 0 W/m2
18:59 33.8 °F 30.4 °F 30.5 in WSW 1.6 mph 3 mph 87% 0 in 0 W/m2
19:04 33.8 °F 30.2 °F 30.5 in WSW 2.1 mph 3.5 mph 87% 0 in 0 W/m2
19:09 33.4 °F 30 °F 30.5 in WSW 1.9 mph 3.5 mph 87.3% 0 in 0 W/m2
19:14 33.4 °F 30.2 °F 30.5 in WSW 1.6 mph 3 mph 87.8% 0 in 0 W/m2
19:19 33.3 °F 30 °F 30.5 in West 1.8 mph 3.5 mph 87.8% 0 in 0 W/m2
19:24 32.9 °F 29.8 °F 30.5 in West 1.7 mph 3 mph 88.3% 0 in 0 W/m2
19:29 32.9 °F 29.8 °F 30.5 in West 2.3 mph 3.5 mph 88.4% 0 in 0 W/m2
19:34 32.5 °F 29.5 °F 30.5 in West 2.1 mph 3.5 mph 88.5% 0 in 0 W/m2
19:39 32.4 °F 29.5 °F 30.5 in West 1 mph 3 mph 89% 0 in 0 W/m2
19:44 32.2 °F 29.3 °F 30.5 in West 0.5 mph 2 mph 89% 0 in 0 W/m2
19:49 32.2 °F 29.5 °F 30.5 in West 0.1 mph 1.2 mph 89.3% 0 in 0 W/m2
19:54 32 °F 29.3 °F 30.5 in WNW 1 mph 2.3 mph 89.9% 0 in 0 W/m2
19:59 31.6 °F 29.1 °F 30.5 in NW 1.4 mph 2.3 mph 90% 0 in 0 W/m2
20:04 31.6 °F 29.1 °F 30.5 in NW 1.4 mph 2.3 mph 90.2% 0 in 0 W/m2
20:09 31.5 °F 28.8 °F 30.5 in NW 1.6 mph 2.3 mph 90% 0 in 0 W/m2
20:14 31.1 °F 28.8 °F 30.5 in NW 1.2 mph 3 mph 90.6% 0 in 0 W/m2
20:19 30.9 °F 28.6 °F 30.5 in NW 1.5 mph 3.5 mph 90.4% 0 in 0 W/m2
20:24 30.7 °F 28.4 °F 30.5 in NW 1.9 mph 3.5 mph 91% 0 in 0 W/m2
20:29 30.9 °F 28.6 °F 30.5 in NW 1.8 mph 3.5 mph 91.1% 0 in 0 W/m2
20:34 30.9 °F 28.8 °F 30.5 in NW 1.5 mph 3 mph 91.1% 0 in 0 W/m2
20:39 30.6 °F 28.4 °F 30.5 in NW 2 mph 3.5 mph 91% 0 in 0 W/m2
20:44 30.4 °F 28.2 °F 30.5 in NW 2.1 mph 3.5 mph 91.5% 0 in 0 W/m2
20:49 30.7 °F 28.6 °F 30.5 in NW 3 mph 4 mph 91.6% 0 in 0 W/m2
20:54 31.3 °F 29.1 °F 30.5 in NW 3.6 mph 5 mph 91.7% 0 in 0 W/m2
20:59 31.6 °F 29.5 °F 30.5 in NW 2.7 mph 5 mph 91% 0 in 0 W/m2
21:04 32 °F 29.5 °F 30.5 in NW 2.4 mph 4 mph 90% 0 in 0 W/m2
21:09 32 °F 29.3 °F 30.5 in NW 2.2 mph 4 mph 90% 0 in 0 W/m2
21:14 32 °F 29.5 °F 30.5 in NW 2 mph 3.5 mph 89.9% 0 in 0 W/m2
21:19 31.8 °F 28.9 °F 30.5 in NW 2 mph 3.5 mph 89.3% 0 in 0 W/m2
21:24 31.3 °F 28.6 °F 30.5 in NW 2.2 mph 4 mph 90% 0 in 0 W/m2
21:29 31.3 °F 28.9 °F 30.5 in NW 2.1 mph 4 mph 90.9% 0 in 0 W/m2
21:34 31.5 °F 29.1 °F 30.5 in NW 2.1 mph 3.5 mph 91% 0 in 0 W/m2
21:39 31.5 °F 29.1 °F 30.5 in NW 2 mph 4 mph 90.5% 0 in 0 W/m2
21:44 31.5 °F 28.9 °F 30.5 in NW 2.5 mph 4 mph 90.2% 0 in 0 W/m2
21:49 31.6 °F 28.9 °F 30.5 in NW 2.3 mph 4 mph 90% 0 in 0 W/m2
21:54 31.5 °F 28.9 °F 30.5 in WNW 2.1 mph 4 mph 90% 0 in 0 W/m2
21:59 31.3 °F 28.6 °F 30.5 in NW 0.9 mph 3.5 mph 90% 0 in 0 W/m2
22:04 30.7 °F 28.2 °F 30.6 in NW 0.9 mph 3 mph 90.4% 0 in 0 W/m2
22:09 30.7 °F 28.6 °F 30.6 in NW 1.2 mph 2.3 mph 91% 0 in 0 W/m2
22:14 30.7 °F 28.4 °F 30.6 in WNW 1.6 mph 2.3 mph 90.5% 0 in 0 W/m2
22:19 30.4 °F 28 °F 30.6 in WNW 1.1 mph 2.3 mph 90.9% 0 in 0 W/m2
22:24 30.4 °F 28.2 °F 30.6 in WNW 0.2 mph 2.3 mph 91.8% 0 in 0 W/m2
22:29 30.4 °F 28 °F 30.6 in Calm   2 mph 91.1% 0 in 0 W/m2
22:34 30.2 °F 28 °F 30.6 in Calm     91.5% 0 in 0 W/m2
22:39 30 °F 27.9 °F 30.6 in Calm     91.4% 0 in 0 W/m2
22:44 30 °F 27.9 °F 30.6 in Calm     91.5% 0 in 0 W/m2
22:49 29.7 °F 27.7 °F 30.6 in Calm     91.7% 0 in 0 W/m2
22:54 29.3 °F 27.3 °F 30.6 in Calm     92.1% 0 in 0 W/m2
22:59 29.1 °F 27.1 °F 30.6 in Calm     92.1% 0 in 0 W/m2
23:04 29.3 °F 27.5 °F 30.6 in Calm     92.4% 0 in 0 W/m2
23:09 29.1 °F 27.1 °F 30.6 in Calm     92% 0 in 0 W/m2
23:14 28.9 °F 27.1 °F 30.6 in Calm     93% 0 in 0 W/m2
23:19 29.1 °F 27.3 °F 30.6 in Calm     93% 0 in 0 W/m2
23:24 28.9 °F 27.1 °F 30.6 in Calm     92.3% 0 in 0 W/m2
23:29 28.6 °F 26.6 °F 30.6 in SSW 0.9 mph 4 mph 92.2% 0 in 0 W/m2
23:34 28.8 °F 26.8 °F 30.6 in SW 3 mph 4 mph 92.8% 0 in 0 W/m2
23:39 28.8 °F 27 °F 30.6 in SW 1.9 mph 4 mph 93% 0 in 0 W/m2
23:44 28.8 °F 27 °F 30.6 in WSW 1.7 mph 3 mph 93% 0 in 0 W/m2
23:49 28.6 °F 26.6 °F 30.6 in WSW 2 mph 3.5 mph 92.3% 0 in 0 W/m2
23:54 28 °F 26.1 °F 30.6 in WSW 2.1 mph 3.5 mph 92.7% 0 in 0 W/m2
23:59 27.9 °F 26.1 °F 30.6 in SW 1.9 mph 3.5 mph 93% 0 in 0 W/m2
Stazione Meteorologica MeteoMincio Rivalta s/M (MN)
Con i complimenti di Weather Underground - 4 mb


METEO PILLOLE
Maggior quantità di pioggia caduta in 48 ore
Cherrapunji (1313 m) - India
Tra il 15 e 16 giugno 1995 caddero 2493mm di pioggia.

Do NOT follow this link or you will be banned from the site!